Brownfield, ME

4:07 AM EST on February 20, 2017 (GMT -0500)
| | Change Station

Elev -9999 ft 0.00 °N, 0.00 °E | Updated 5 minutes ago

Mostly Cloudy
Mostly Cloudy
°F
Feels Like °F
N
Wind Variable Wind from North
Gusts mph

Today
High -- | Low -- °F
--% Chance of Precip.
Yesterday
High -- | Low -- °F
Precip. -- in
Pressure 29.98 in
Visibility 10.0 miles
Clouds Mostly Cloudy 4300 ft
Dew Point Not available.
Humidity Not available.
Rainfall --
Snow Depth Not available.
6:34 AM 5:20 PM
Waning Crescent, 35% visible
METAR KIZG 200854Z AUTO 03005KT 10SM BKN043 01/M06 A2997 RMK AO2 SLP152 T00111056 53021
Pressure 29.98 in
Visibility 10.0 miles
Clouds Mostly Cloudy 4300 ft
Dew Point Not available.
Humidity Not available.
Rainfall --
Snow Depth Not available.
6:34 AM 5:20 PM
Waning Crescent, 35% visible
METAR KIZG 200854Z AUTO 03005KT 10SM BKN043 01/M06 A2997 RMK AO2 SLP152 T00111056 53021

Get Your Daily Forecast Email!

Thanks for signing up!

Be on the lookout for a verification email in your inbox.

You'll start receiving the daily forecast at 8 AM.

×

10-Day Weather Forecast

Almanac

Astronomy

Feb. 20, 2017 Rise Set
Actual Time
Civil Twilight
Nautical Twilight
Astronomical Twilight
Moon
Length of Visible Light
Length of Day
Tomorrow will be .
, % of the Moon is Illuminated

Today's Extremes

State Highs State Lows

Community

WunderPhotos

Upload Photos

1,962,540 photos uploaded!

WunderBlog® & News

Nearby

Air Quality

  Air Quality AQ Index Pollutant
Not available.

Snow Depth

Station Depth Elevation

Earthquake Activity

City Distance Mag. Time & Date
Minimum magnitude displayed is 2.5.

Coastal Water Temperatures

Place Temperature

Stations

Nearby Weather Stations

Station Location Temp. Windchill Dew Point Humidity Wind Precip. Elev Updated Type
                   

Watches & Warnings

Small Craft for Winds Advisory
Issued: 2:51 AM EST Feb. 20, 2017 – National Weather Service

... Small Craft Advisory for winds remains in effect from 6 am
this morning to 5 PM EST this afternoon...

* winds... north 10 to 20 kt with gusts up to 30 kt.

Precautionary/preparedness actions...

A Small Craft Advisory for wind means that wind speeds of 25 to
33 knots are expected. Inexperienced mariners... especially those
operating smaller vessels should avoid navigating in these
conditions.